Time;durP1;ratioP1;P1;durP2;ratioP2;P2;SDS_P1;SDS_P2;PMS_P1;PMS_P2;Temp;Humidity;BMP_temperature;BMP_pressure;BME280_temperature;BME280_humidity;BME280_pressure;Samples;Min_cycle;Max_cycle;Signal;HPM_P1;HPM_P2
2021/10/01 00:05:26;;;;;;;1999.90;999.90;;;;;;;11.04;67.85;102055.97;15627582;28;20046;-56
2021/10/01 00:12:59;;;;;;;1999.90;999.90;;;;;;;11.44;66.77;102057.25;15627427;28;20056;-55
2021/10/01 00:20:31;;;;;;;1999.90;999.90;;;;;;;11.33;67.57;102050.19;15626642;28;20076;-59
2021/10/01 00:28:05;;;;;;;1999.90;999.90;;;;;;;11.60;66.90;102032.66;15625348;28;20053;-57
2021/10/01 00:35:37;;;;;;;1999.90;999.90;;;;;;;11.58;66.77;102032.97;15625132;28;20422;-60
2021/10/01 00:43:14;;;;;;;1999.90;999.90;;;;;;;11.75;66.87;102033.19;15624286;28;20033;-56
2021/10/01 00:50:53;;;;;;;1999.90;999.90;;;;;;;11.58;66.79;102027.38;15608043;28;20060;-55
2021/10/01 00:58:27;;;;;;;1999.90;999.90;;;;;;;11.10;68.45;102019.28;15640535;28;20049;-54
2021/10/01 01:06:09;;;;;;;1999.90;999.90;;;;;;;11.29;68.21;102008.06;15626757;28;20056;-54
2021/10/01 01:13:49;;;;;;;1999.90;999.90;;;;;;;10.89;69.03;102004.81;15626490;28;20041;-58
2021/10/01 01:21:42;;;;;;;1999.90;999.90;;;;;;;11.29;67.73;102005.28;15639786;28;20060;-54
2021/10/01 01:29:28;;;;;;;1999.90;999.90;;;;;;;11.21;68.29;101995.63;15622421;28;20124;-55
2021/10/01 01:37:05;;;;;;;1999.90;999.90;;;;;;;10.99;68.34;101999.06;15622749;28;20081;-60
2021/10/01 01:44:40;;;;;;;1999.90;999.90;;;;;;;11.00;68.35;101994.31;15604052;28;20045;-57
2021/10/01 01:52:16;;;;;;;1999.90;999.90;;;;;;;10.93;68.56;101991.06;15603078;28;20045;-60
2021/10/01 01:59:49;;;;;;;1999.90;999.90;;;;;;;10.56;69.65;101992.78;15602854;28;20042;-60
2021/10/01 02:07:24;;;;;;;1999.90;999.90;;;;;;;10.91;68.85;101990.56;15619449;28;20045;-58
2021/10/01 02:15:00;;;;;;;1999.90;999.90;;;;;;;10.92;68.06;101990.25;15618064;28;20037;-54
2021/10/01 02:22:38;;;;;;;1999.90;999.90;;;;;;;10.68;69.16;101984.78;15617705;28;20046;-55
2021/10/01 02:30:15;;;;;;;1999.90;999.90;;;;;;;10.75;68.88;101973.25;15603539;28;20045;-56
2021/10/01 02:37:49;;;;;;;1999.90;999.90;;;;;;;10.28;70.21;101977.00;15616642;28;20482;-57
2021/10/01 02:45:23;;;;;;;1999.90;999.90;;;;;;;10.23;70.57;101968.72;15616675;28;20383;-58
2021/10/01 02:53:02;;;;;;;1999.90;999.90;;;;;;;10.20;70.79;101969.28;15615944;28;20473;-59
2021/10/01 03:00:40;;;;;;;1999.90;999.90;;;;;;;10.31;70.54;101962.44;15615737;28;20064;-57
2021/10/01 03:08:17;;;;;;;1999.90;999.90;;;;;;;10.34;70.10;101954.31;15624155;22;20055;-75
2021/10/01 03:15:51;;;;;;;1999.90;999.90;;;;;;;10.06;70.89;101958.03;15589239;28;20037;-76
2021/10/01 03:23:24;;;;;;;1999.90;999.90;;;;;;;9.81;71.49;101953.63;15669155;22;20049;-57
2021/10/01 03:30:57;;;;;;;;;;;;;;;9.95;71.55;101943.41;15659785;28;20045;-59
2021/10/01 03:38:30;;;;;;;1999.90;999.90;;;;;;;9.40;73.00;101937.38;15637182;23;19936;-58
2021/10/01 03:46:06;;;;;;;1999.90;999.90;;;;;;;9.58;72.07;101930.19;15635109;28;20041;-58
2021/10/01 03:53:40;;;;;;;1999.90;999.90;;;;;;;9.42;72.00;101926.78;15602962;28;20045;-58
2021/10/01 04:01:34;;;;;;;1999.90;999.90;;;;;;;9.68;71.12;101926.47;15621236;28;20068;-59
2021/10/01 04:09:07;;;;;;;1999.90;999.90;;;;;;;9.85;70.38;101921.22;15602665;28;20069;-61
2021/10/01 04:16:41;;;;;;;1999.90;999.90;;;;;;;9.41;71.64;101911.19;15603855;28;20156;-59
2021/10/01 04:24:14;;;;;;;1999.90;999.90;;;;;;;9.75;70.47;101921.34;15585768;28;20045;-58
2021/10/01 04:31:53;;;;;;;1999.90;999.90;;;;;;;9.79;70.12;101909.31;15615050;28;20044;-62
2021/10/01 04:39:29;;;;;;;1999.90;999.90;;;;;;;10.00;69.32;101900.66;15663671;28;20571;-56
2021/10/01 04:47:02;;;;;;;;;;;;;;;9.70;70.03;101893.56;15662012;28;20047;-61
2021/10/01 04:54:35;;;;;;;1999.90;999.90;;;;;;;9.47;70.89;101882.13;15662283;28;19921;-60
2021/10/01 05:02:08;;;;;;;1999.90;999.90;;;;;;;9.56;70.49;101873.94;15662172;28;20041;-58
2021/10/01 05:10:04;;;;;;;1999.90;999.90;;;;;;;9.67;70.35;101888.56;15661829;28;20049;-58
2021/10/01 05:18:16;;;;;;;1999.90;999.90;;;;;;;9.76;69.87;101887.59;15470230;28;20130;-60
2021/10/01 05:26:15;;;;;;;1999.90;999.90;;;;;;;9.90;69.40;101892.44;15605005;28;20539;-58
2021/10/01 05:33:47;;;;;;;;;;;;;;;9.97;69.25;101893.72;15626211;28;20122;-61
2021/10/01 05:41:21;;;;;;;1999.90;999.90;;;;;;;10.12;68.71;101887.94;15601196;28;19998;-61
2021/10/01 05:48:57;;;;;;;1999.90;999.90;;;;;;;10.20;67.86;101889.19;15613269;28;20046;-61
2021/10/01 05:56:50;;;;;;;1999.90;999.90;;;;;;;10.30;67.95;101888.25;15614574;28;20048;-59
2021/10/01 06:04:31;;;;;;;1999.90;999.90;;;;;;;10.44;67.40;101903.13;15596095;28;20046;-59
2021/10/01 06:12:06;;;;;;;1999.90;999.90;;;;;;;10.93;66.15;101902.53;15595470;28;20037;-60
2021/10/01 06:19:40;;;;;;;1999.90;999.90;;;;;;;11.11;65.81;101902.78;15579422;28;20053;-58
2021/10/01 06:27:15;;;;;;;1999.90;999.90;;;;;;;10.60;66.99;101889.72;15583181;28;20091;-58
2021/10/01 06:34:48;;;;;;;1999.90;999.90;;;;;;;11.04;65.99;101888.38;15624173;28;20099;-62
2021/10/01 06:42:23;;;;;;;1999.90;999.90;;;;;;;11.45;64.74;101894.00;15611438;28;20052;-61
2021/10/01 06:50:08;;;;;;;1999.90;999.90;;;;;;;11.80;63.39;101889.69;15587889;28;20050;-60
2021/10/01 07:45:42;;;;;;;1999.90;999.90;;;;;;;13.96;57.18;101888.19;15600679;28;20454;-61
2021/10/01 08:24:43;;;;;;;1999.90;999.90;;;;;;;17.51;50.78;101875.00;15639780;28;20048;-62
2021/10/01 08:32:17;;;;;;;1999.90;999.90;;;;;;;17.60;49.56;101870.03;15632107;28;20061;-61
2021/10/01 08:39:49;;;;;;;1999.90;999.90;;;;;;;17.84;49.19;101872.06;15612771;28;20060;-62
2021/10/01 08:47:48;;;;;;;1999.90;999.90;;;;;;;17.91;48.36;101865.78;15591105;28;20072;-62
2021/10/01 08:55:21;;;;;;;1999.90;999.90;;;;;;;18.59;48.33;101866.66;15595772;28;20184;-61
2021/10/01 09:02:54;;;;;;;1999.90;999.90;;;;;;;18.28;48.00;101855.25;15612921;28;20045;-62
2021/10/01 09:10:28;;;;;;;1999.90;999.90;;;;;;;18.26;46.85;101844.31;15604851;28;20111;-61
2021/10/01 09:18:02;;;;;;;1999.90;999.90;;;;;;;19.47;46.22;101841.13;15623356;28;20475;-62
2021/10/01 09:25:34;;;;;;;1999.90;999.90;;;;;;;19.97;43.66;101831.84;15620153;28;20059;-61
2021/10/01 09:33:11;;;;;;;1999.90;999.90;;;;;;;19.92;43.90;101811.50;15610551;28;20148;-62
2021/10/01 09:40:45;;;;;;;1999.90;999.90;;;;;;;20.60;43.92;101799.56;15611586;28;20076;-61
2021/10/01 09:48:28;;;;;;;1999.90;999.90;;;;;;;20.80;42.27;101804.00;15595244;28;20060;-61
2021/10/01 09:56:00;;;;;;;1999.90;999.90;;;;;;;20.26;41.90;101796.44;15654481;22;20872;-64
2021/10/01 10:03:35;;;;;;;1999.90;999.90;;;;;;;21.16;40.87;101782.78;15649255;28;20143;-63
2021/10/01 10:11:10;;;;;;;1999.90;999.90;;;;;;;22.19;39.39;101780.66;15670067;28;20339;-63
2021/10/01 10:18:45;;;;;;;1999.90;999.90;;;;;;;21.86;40.21;101768.00;15666396;28;20055;-63
2021/10/01 10:26:18;;;;;;;1999.90;999.90;;;;;;;21.53;39.04;101767.94;15676480;28;20047;-64
2021/10/01 10:33:54;;;;;;;1999.90;999.90;;;;;;;21.46;39.90;101759.31;15662739;28;20044;-63
2021/10/01 10:41:29;;;;;;;1999.90;999.90;;;;;;;22.71;38.47;101761.72;15691212;28;20048;-62
2021/10/01 10:49:22;;;;;;;1999.90;999.90;;;;;;;22.33;38.76;101748.75;15707083;28;20102;-63
2021/10/01 10:57:09;;;;;;;;;;;;;;;22.47;38.58;101746.03;15684662;28;20102;-63
2021/10/01 11:04:43;;;;;;;1999.90;999.90;;;;;;;22.80;37.23;101738.63;15674873;28;20297;-64
2021/10/01 11:12:26;;;;;;;1999.90;999.90;;;;;;;23.28;36.61;101731.75;15667098;28;20053;-65
2021/10/01 11:20:00;;;;;;;1999.90;999.90;;;;;;;23.73;36.32;101725.94;15661425;28;20040;-64
2021/10/01 11:27:32;;;;;;;1999.90;999.90;;;;;;;23.41;36.00;101712.31;15697132;28;20067;-64
2021/10/01 11:35:07;;;;;;;1999.90;999.90;;;;;;;23.77;35.30;101701.97;15676158;28;20114;-62
2021/10/01 11:42:41;;;;;;;1999.90;999.90;;;;;;;24.90;33.79;101696.91;15688778;28;20502;-61
2021/10/01 11:50:16;;;;;;;1999.90;999.90;;;;;;;26.04;32.18;101688.91;15708467;28;20494;-64
2021/10/01 11:57:49;;;;;;;1999.90;999.90;;;;;;;25.45;33.26;101677.31;15681524;28;20516;-62
2021/10/01 12:05:31;;;;;;;1999.90;999.90;;;;;;;24.66;33.28;101667.16;15681416;28;20052;-61
2021/10/01 12:13:13;;;;;;;1999.90;999.90;;;;;;;23.64;34.27;101660.78;15675230;28;20044;-64
2021/10/01 12:20:48;;;;;;;1999.90;999.90;;;;;;;23.87;32.91;101640.53;15691974;28;20303;-63
2021/10/01 12:28:22;;;;;;;1999.90;999.90;;;;;;;24.73;32.95;101632.94;15708452;28;20115;-63
2021/10/01 12:35:56;;;;;;;1999.90;999.90;;;;;;;27.60;30.17;101620.09;15675484;28;20067;-64
2021/10/01 12:43:42;;;;;;;1999.90;999.90;;;;;;;25.64;30.65;101598.84;15696917;28;20041;-63
2021/10/01 12:51:25;;;;;;;1999.90;999.90;;;;;;;29.19;27.02;101604.47;15710571;28;20045;-64
2021/10/01 12:58:57;;;;;;;1999.90;999.90;;;;;;;29.36;26.90;101584.41;15676508;28;20049;-64
2021/10/01 13:06:31;;;;;;;1999.90;999.90;;;;;;;26.51;28.92;101577.88;15695666;28;20078;-64
2021/10/01 13:14:15;;;;;;;1999.90;999.90;;;;;;;27.06;28.78;101565.47;15708612;28;20517;-63
2021/10/01 13:21:57;;;;;;;1999.90;999.90;;;;;;;27.71;27.67;101556.91;15695702;28;20080;-63
2021/10/01 13:29:29;;;;;;;1999.90;999.90;;;;;;;23.16;34.85;101529.94;15688268;28;20060;-64
2021/10/01 13:37:05;;;;;;;1999.90;999.90;;;;;;;21.48;35.28;101535.47;15704155;28;20377;-64
2021/10/01 13:44:38;;;;;;;1999.90;999.90;;;;;;;21.08;36.05;101516.28;15713147;28;20048;-63
2021/10/01 13:52:11;;;;;;;1999.90;999.90;;;;;;;21.18;36.59;101515.59;15671100;28;20186;-64
2021/10/01 13:59:44;;;;;;;1999.90;999.90;;;;;;;20.85;36.43;101514.38;15664834;28;20421;-63
2021/10/01 14:07:17;;;;;;;1999.90;999.90;;;;;;;20.74;36.32;101499.22;15670299;28;20099;-64
2021/10/01 14:14:50;;;;;;;1999.90;999.90;;;;;;;20.69;36.54;101496.69;15672238;28;20064;-63
2021/10/01 14:22:23;;;;;;;1999.90;999.90;;;;;;;20.48;38.02;101487.88;15662641;28;20102;-63
2021/10/01 14:29:57;;;;;;;1999.90;999.90;;;;;;;20.52;36.89;101478.22;15663200;28;20586;-63
2021/10/01 14:37:30;;;;;;;1999.90;999.90;;;;;;;20.35;37.62;101462.56;15678107;28;20448;-63
2021/10/01 14:45:05;;;;;;;1999.90;999.90;;;;;;;20.67;38.41;101453.75;15661072;28;20650;-62
2021/10/01 14:52:40;;;;;;;1999.90;999.90;;;;;;;20.50;38.90;101448.63;15676023;28;20172;-61
2021/10/01 15:00:13;;;;;;;1999.90;999.90;;;;;;;20.47;38.87;101444.56;15647742;28;20044;-62
2021/10/01 15:07:46;;;;;;;;;;;;;;;20.69;38.99;101434.31;15670214;28;20051;-62
2021/10/01 15:15:20;;;;;;;1999.90;999.90;;;;;;;20.39;39.19;101423.75;15679332;28;19924;-62
2021/10/01 15:22:53;;;;;;;1999.90;999.90;;;;;;;20.24;39.75;101421.94;15648047;28;20473;-62
2021/10/01 15:30:25;;;;;;;1999.90;999.90;;;;;;;20.11;39.62;101415.66;15651673;28;20466;-62
2021/10/01 15:38:00;;;;;;;;;;;;;;;19.99;41.06;101401.69;15659818;28;20053;-61
2021/10/01 15:45:34;;;;;;;1999.90;999.90;;;;;;;19.69;41.93;101403.63;15679660;28;19925;-63
2021/10/01 15:53:09;;;;;;;1999.90;999.90;;;;;;;19.16;41.89;101394.97;15660854;28;20061;-61
2021/10/01 16:00:43;;;;;;;1999.90;999.90;;;;;;;19.44;42.05;101392.66;15670162;28;20049;-61
2021/10/01 16:08:17;;;;;;;1999.90;999.90;;;;;;;18.72;44.71;101386.84;15668809;28;20052;-62
2021/10/01 16:15:49;;;;;;;1999.90;999.90;;;;;;;18.49;45.92;101397.22;15654200;28;20447;-62
2021/10/01 16:23:23;;;;;;;1999.90;999.90;;;;;;;17.89;47.63;101387.00;15678508;28;20079;-62
2021/10/01 16:30:55;;;;;;;1999.90;999.90;;;;;;;17.70;47.50;101392.56;15677172;28;20142;-61
2021/10/01 16:38:29;;;;;;;1999.90;999.90;;;;;;;17.51;47.56;101386.84;15676680;28;20045;-62
2021/10/01 16:46:01;;;;;;;1999.90;999.90;;;;;;;17.13;49.02;101384.59;15657629;28;20561;-64
2021/10/01 16:53:34;;;;;;;1999.90;999.90;;;;;;;17.27;49.09;101380.16;15611564;28;20125;-63
2021/10/01 17:01:07;;;;;;;1999.90;999.90;;;;;;;16.88;49.53;101376.28;15595224;28;20414;-62
2021/10/01 17:08:41;;;;;;;1999.90;999.90;;;;;;;16.83;49.50;101370.09;15613898;28;20049;-61
2021/10/01 17:16:13;;;;;;;1999.90;999.90;;;;;;;16.49;49.91;101361.03;15673515;28;20120;-62
2021/10/01 17:23:47;;;;;;;1999.90;999.90;;;;;;;16.49;49.15;101346.16;15689680;28;20533;-61
2021/10/01 17:31:20;;;;;;;1999.90;999.90;;;;;;;16.37;49.67;101345.00;15694091;28;20045;-62
2021/10/01 17:38:53;;;;;;;1999.90;999.90;;;;;;;16.47;49.33;101351.31;15692989;28;20052;-63
2021/10/01 17:46:26;;;;;;;1999.90;999.90;;;;;;;16.22;49.69;101333.66;15655044;28;20068;-61
2021/10/01 17:54:00;;;;;;;1999.90;999.90;;;;;;;16.60;48.92;101341.63;15652241;28;20103;-63
2021/10/01 18:01:32;;;;;;;1999.90;999.90;;;;;;;16.32;49.51;101333.16;15654024;28;20037;-61
2021/10/01 18:09:06;;;;;;;1999.90;999.90;;;;;;;16.08;51.24;101329.25;15671053;28;20048;-61
2021/10/01 18:16:38;;;;;;;1999.90;999.90;;;;;;;15.96;51.58;101317.22;15671205;28;20059;-62
2021/10/01 18:24:11;;;;;;;1999.90;999.90;;;;;;;15.98;51.44;101320.47;15685204;22;20520;-75
2021/10/01 18:31:45;;;;;;;1999.90;999.90;;;;;;;15.81;51.67;101307.47;15676917;28;20140;-76
2021/10/01 18:39:18;;;;;;;1999.90;999.90;;;;;;;15.67;52.39;101301.41;15643841;22;20470;-59
2021/10/01 18:46:51;;;;;;;1999.90;999.90;;;;;;;15.35;53.56;101294.72;15639572;28;20172;-56
2021/10/01 18:54:24;;;;;;;1999.90;999.90;;;;;;;15.12;54.80;101283.94;15607931;28;20034;-59
2021/10/01 19:01:58;;;;;;;1999.90;999.90;;;;;;;15.38;54.37;101280.78;15609575;28;20155;-60
2021/10/01 19:09:32;;;;;;;1999.90;999.90;;;;;;;15.30;54.76;101284.53;15606763;28;20053;-60
2021/10/01 19:17:05;;;;;;;1999.90;999.90;;;;;;;15.30;55.01;101278.91;15591527;28;20514;-60
2021/10/01 19:24:42;;;;;;;1999.90;999.90;;;;;;;15.18;55.63;101273.28;15593993;28;20046;-61
2021/10/01 19:32:14;;;;;;;1999.90;999.90;;;;;;;14.89;56.35;101263.06;15592014;28;20495;-60
2021/10/01 19:39:54;;;;;;;1999.90;999.90;;;;;;;14.73;57.27;101258.13;15608414;28;20522;-60
2021/10/01 19:47:27;;;;;;;1999.90;999.90;;;;;;;14.44;57.88;101253.47;15608562;28;20281;-62
2021/10/01 19:55:01;;;;;;;1999.90;999.90;;;;;;;14.47;58.47;101256.75;15608372;28;20049;-60
2021/10/01 20:02:34;;;;;;;1999.90;999.90;;;;;;;14.71;57.98;101245.59;15607939;28;20127;-60
2021/10/01 20:10:10;;;;;;;1999.90;999.90;;;;;;;14.50;58.58;101236.44;15590154;28;20127;-60
2021/10/01 20:17:49;;;;;;;1999.90;999.90;;;;;;;14.10;59.87;101229.38;15611750;28;20387;-61
2021/10/01 20:25:48;;;;;;;1999.90;999.90;;;;;;;14.26;59.60;101220.28;15633239;28;20123;-61
2021/10/01 20:49:02;;;;;;;1999.90;999.90;;;;;;;14.10;60.36;101184.47;15632968;28;20546;-62
2021/10/01 20:56:37;;;;;;;1999.90;999.90;;;;;;;14.22;59.91;101188.47;15599370;28;20041;-56
2021/10/01 21:04:43;;;;;;;1999.90;999.90;;;;;;;14.14;59.92;101179.78;15632029;28;20056;-61
2021/10/01 21:36:50;;;;;;;1999.90;999.90;;;;;;;13.89;61.08;101150.03;15594587;28;20147;-60
2021/10/01 21:52:03;;;;;;;1999.90;999.90;;;;;;;13.92;61.23;101142.88;15614850;28;20075;-61
2021/10/01 21:59:40;;;;;;;1999.90;999.90;;;;;;;13.85;61.26;101143.44;15595278;28;20042;-60
2021/10/01 22:15:11;;;;;;;1999.90;999.90;;;;;;;13.98;60.88;101130.28;15611385;28;20037;-60
2021/10/01 22:22:46;;;;;;;1999.90;999.90;;;;;;;14.27;60.91;101134.91;15594589;28;20051;-60
2021/10/01 22:30:23;;;;;;;1999.90;999.90;;;;;;;13.92;62.46;101118.47;15594933;28;20140;-61
2021/10/01 22:37:57;;;;;;;1999.90;999.90;;;;;;;13.52;63.75;101120.97;15610711;28;20084;-62
2021/10/01 22:45:31;;;;;;;;;;;;;;;13.44;64.19;101119.91;15624908;28;20045;-61
2021/10/01 22:53:04;;;;;;;1999.90;999.90;;;;;;;13.12;64.68;101110.22;15593148;28;19921;-61
2021/10/01 23:00:39;;;;;;;1999.90;999.90;;;;;;;13.19;65.26;101113.34;15609522;28;20475;-61
2021/10/01 23:08:13;;;;;;;1999.90;999.90;;;;;;;13.01;65.58;101108.97;15585976;28;20045;-61
2021/10/01 23:16:01;;;;;;;1999.90;999.90;;;;;;;12.82;66.26;101091.81;15608509;28;20054;-61
